createdAt,value
2023-05-19T00:00:14.842Z,5.13
2023-05-19T00:02:44.228Z,5.75
2023-05-19T00:05:18.674Z,4.90
2023-05-19T00:07:48.286Z,5.00
2023-05-19T00:10:18.506Z,5.53
2023-05-19T00:12:47.096Z,5.43
2023-05-19T00:15:16.367Z,5.82
2023-05-19T00:17:44.825Z,6.00
2023-05-19T00:20:15.888Z,6.00
2023-05-19T00:22:45.066Z,5.60
2023-05-19T00:25:13.429Z,6.30
2023-05-19T00:27:41.712Z,5.95
2023-05-19T00:30:10.824Z,5.97
2023-05-19T00:32:39.155Z,5.78
2023-05-19T00:35:08.319Z,5.97
2023-05-19T00:37:37.862Z,5.85
2023-05-19T00:40:07.704Z,5.60
2023-05-19T00:42:36.136Z,5.20
2023-05-19T00:45:04.745Z,5.63
2023-05-19T00:47:33.055Z,5.50
2023-05-19T00:50:01.340Z,5.38
2023-05-19T00:52:29.943Z,5.22
2023-05-19T00:54:59.670Z,5.53
2023-05-19T00:57:28.255Z,5.43
2023-05-19T00:59:56.910Z,5.38
2023-05-19T01:02:25.353Z,5.28
2023-05-19T01:04:55.547Z,5.05
2023-05-19T01:07:25.517Z,4.50
2023-05-19T01:09:53.829Z,4.40
2023-05-19T01:12:23.596Z,4.85
2023-05-19T01:14:52.231Z,4.75
2023-05-19T01:17:25.478Z,5.07
2023-05-19T01:20:05.175Z,5.28
2023-05-19T01:22:55.072Z,5.13
2023-05-19T01:25:54.588Z,5.43
2023-05-19T01:29:08.834Z,6.55
2023-05-19T01:31:42.152Z,5.75
2023-05-19T01:34:13.413Z,5.82
2023-05-19T01:36:44.939Z,6.00
2023-05-19T01:39:15.463Z,6.65
2023-05-19T01:41:45.741Z,6.78
2023-05-19T01:44:18.115Z,6.22
2023-05-19T01:46:48.271Z,6.30
2023-05-19T01:49:16.487Z,6.38
2023-05-19T01:51:47.688Z,6.03
2023-05-19T01:54:15.981Z,5.90
2023-05-19T01:56:51.324Z,5.88
2023-05-19T01:59:38.759Z,4.97
2023-05-19T02:02:17.056Z,4.68
2023-05-19T02:04:52.218Z,4.78
2023-05-19T02:07:28.753Z,5.65
2023-05-19T02:10:05.801Z,4.90
2023-05-19T02:12:37.797Z,5.43
2023-05-19T02:15:08.732Z,5.93
2023-05-19T02:17:42.646Z,5.43
2023-05-19T02:20:12.287Z,5.00
2023-05-19T02:22:41.082Z,4.93
2023-05-19T02:25:10.383Z,4.53
2023-05-19T02:27:39.942Z,4.60
2023-05-19T02:30:10.115Z,4.75
2023-05-19T02:32:40.076Z,4.82
2023-05-19T02:35:09.129Z,4.80
2023-05-19T02:37:37.401Z,4.20
2023-05-19T02:40:06.829Z,4.55
2023-05-19T02:42:35.207Z,4.32
2023-05-19T02:45:08.292Z,4.18
2023-05-19T02:47:37.276Z,4.10
2023-05-19T02:50:09.059Z,4.35
2023-05-19T02:52:37.218Z,4.40
2023-05-19T02:55:08.179Z,4.68
2023-05-19T02:57:36.510Z,4.80
2023-05-19T03:00:07.041Z,4.30
2023-05-19T03:02:35.605Z,4.28
2023-05-19T03:05:04.258Z,4.68
2023-05-19T03:07:34.013Z,4.55
2023-05-19T03:10:04.007Z,4.40
2023-05-19T03:12:32.617Z,5.07
2023-05-19T03:15:01.109Z,5.38
2023-05-19T03:17:33.872Z,4.55
2023-05-19T03:20:02.758Z,4.72
2023-05-19T03:22:30.939Z,4.65
2023-05-19T03:25:00.618Z,5.13
2023-05-19T03:27:28.975Z,5.35
2023-05-19T03:29:57.336Z,5.40
2023-05-19T03:32:25.900Z,5.28
2023-05-19T03:34:54.330Z,5.93
2023-05-19T03:37:22.612Z,5.30
2023-05-19T03:39:50.832Z,6.43
2023-05-19T03:42:20.458Z,5.05
2023-05-19T03:44:48.778Z,5.75
2023-05-19T03:47:17.227Z,4.90
2023-05-19T03:49:50.229Z,5.15
2023-05-19T03:52:36.867Z,5.13
2023-05-19T03:55:14.832Z,4.95
2023-05-19T03:57:44.651Z,4.75
2023-05-19T04:00:14.139Z,4.85
2023-05-19T04:02:42.662Z,5.00
2023-05-19T04:05:15.552Z,5.55
2023-05-19T04:07:45.235Z,4.65
2023-05-19T04:10:14.049Z,5.32
2023-05-19T04:12:42.303Z,4.93
2023-05-19T04:15:12.999Z,5.00
2023-05-19T04:17:42.133Z,5.75
2023-05-19T04:20:12.229Z,5.40
2023-05-19T04:22:40.407Z,5.38
2023-05-19T04:25:09.615Z,5.57
2023-05-19T04:27:39.112Z,5.70
2023-05-19T04:30:09.532Z,5.45
2023-05-19T04:32:39.784Z,5.85
2023-05-19T04:35:08.671Z,6.50
2023-05-19T04:37:38.499Z,6.10
2023-05-19T04:40:11.322Z,5.68
2023-05-19T04:42:42.757Z,5.00
2023-05-19T04:45:14.265Z,5.40
2023-05-19T04:47:48.252Z,5.28
2023-05-19T04:50:17.404Z,5.25
2023-05-19T04:52:46.666Z,5.18
2023-05-19T04:55:16.064Z,4.93
2023-05-19T04:57:45.106Z,5.80
2023-05-19T05:00:14.801Z,5.47
2023-05-19T05:03:05.513Z,6.13
2023-05-19T05:05:34.501Z,5.57
2023-05-19T05:08:03.274Z,6.63
2023-05-19T05:10:36.788Z,6.07
2023-05-19T05:13:05.478Z,6.43
2023-05-19T05:15:34.158Z,6.68
2023-05-19T05:18:05.938Z,6.60
2023-05-19T05:20:35.076Z,6.68
2023-05-19T05:23:04.121Z,7.22
2023-05-19T05:25:34.698Z,6.68
2023-05-19T05:28:05.330Z,6.78
2023-05-19T05:30:37.665Z,6.55
2023-05-19T05:33:10.257Z,6.93
2023-05-19T05:35:40.349Z,8.20
2023-05-19T05:38:11.641Z,8.18
2023-05-19T05:40:40.582Z,7.90
2023-05-19T05:43:11.931Z,8.27
2023-05-19T05:45:46.804Z,8.27
2023-05-19T05:48:17.320Z,8.15
2023-05-19T05:50:47.038Z,8.75
2023-05-19T05:53:20.694Z,8.35
2023-05-19T05:55:53.664Z,8.20
2023-05-19T05:58:24.422Z,8.30
2023-05-19T06:00:57.244Z,7.90
2023-05-19T06:03:28.532Z,8.43
2023-05-19T06:06:00.500Z,7.65
2023-05-19T06:08:28.982Z,7.30
2023-05-19T06:10:58.368Z,8.02
2023-05-19T06:13:28.053Z,7.22
2023-05-19T06:15:57.765Z,8.15
2023-05-19T06:18:33.872Z,7.60
2023-05-19T06:21:03.441Z,7.97
2023-05-19T06:23:32.592Z,7.15
2023-05-19T06:26:03.547Z,7.25
2023-05-19T06:28:32.147Z,7.65
2023-05-19T06:31:00.492Z,8.32
2023-05-19T06:33:44.493Z,8.13
2023-05-19T06:36:13.987Z,8.45
2023-05-19T06:38:44.414Z,9.25
2023-05-19T06:41:14.500Z,8.95
2023-05-19T06:43:43.674Z,8.32
2023-05-19T06:46:17.887Z,8.63
2023-05-19T06:48:47.844Z,9.38
2023-05-19T06:51:21.877Z,8.88
2023-05-19T06:53:54.935Z,8.65
2023-05-19T06:56:24.535Z,9.20
2023-05-19T06:58:52.974Z,8.70
2023-05-19T07:01:26.667Z,9.32
2023-05-19T07:03:58.617Z,8.32
2023-05-19T07:06:27.332Z,8.52
2023-05-19T07:08:55.793Z,8.02
2023-05-19T07:11:26.447Z,7.03
2023-05-19T07:13:55.163Z,7.88
2023-05-19T07:16:28.559Z,13.07
2023-05-19T07:18:58.331Z,15.85
2023-05-19T07:21:26.665Z,8.15
2023-05-19T07:23:54.913Z,7.60
2023-05-19T07:26:23.817Z,7.82
2023-05-19T07:28:52.614Z,8.85
2023-05-19T07:31:21.054Z,8.18
2023-05-19T07:33:49.559Z,6.57
2023-05-19T07:36:19.659Z,6.53
2023-05-19T07:38:48.036Z,6.60
2023-05-19T07:41:16.339Z,6.55
2023-05-19T07:43:44.659Z,6.63
2023-05-19T07:46:12.966Z,7.30
2023-05-19T07:48:41.325Z,6.13
2023-05-19T07:51:10.278Z,6.18
2023-05-19T07:53:40.044Z,5.40
2023-05-19T07:56:08.301Z,6.00
2023-05-19T07:58:36.517Z,5.22
2023-05-19T08:01:05.114Z,6.13
2023-05-19T08:03:33.631Z,6.40
2023-05-19T08:06:01.930Z,6.18
2023-05-19T08:08:30.273Z,6.03
2023-05-19T08:11:02.835Z,6.15
2023-05-19T08:13:31.498Z,6.88
2023-05-19T08:16:00.894Z,6.25
2023-05-19T08:18:29.566Z,6.93
2023-05-19T08:20:59.982Z,6.30
2023-05-19T08:23:28.286Z,5.78
2023-05-19T08:25:59.901Z,5.28
2023-05-19T08:28:28.146Z,5.10
2023-05-19T08:30:56.370Z,5.15
2023-05-19T08:33:24.642Z,4.85
2023-05-19T08:35:53.030Z,4.60
2023-05-19T08:38:21.384Z,4.80
2023-05-19T08:40:49.951Z,4.38
2023-05-19T08:43:19.697Z,4.63
2023-05-19T08:45:48.401Z,4.22
2023-05-19T08:48:20.479Z,4.60
2023-05-19T08:50:56.427Z,5.10
2023-05-19T08:53:33.940Z,5.20
2023-05-19T08:56:13.259Z,4.88
2023-05-19T08:58:44.330Z,5.20
2023-05-19T09:01:16.988Z,5.07
2023-05-19T09:03:46.618Z,4.70
2023-05-19T09:06:15.057Z,3.92
2023-05-19T09:08:43.931Z,5.00
2023-05-19T09:11:12.302Z,4.53
2023-05-19T09:13:40.621Z,4.93
2023-05-19T09:16:10.608Z,5.03
2023-05-19T09:18:41.219Z,4.13
2023-05-19T09:21:11.288Z,4.00
2023-05-19T09:23:39.627Z,4.57
2023-05-19T09:26:10.941Z,3.88
2023-05-19T09:28:39.180Z,4.38
2023-05-19T09:31:09.048Z,4.57
2023-05-19T09:33:39.706Z,4.38
2023-05-19T09:36:09.295Z,4.30
2023-05-19T09:38:39.039Z,4.50
2023-05-19T09:41:08.941Z,5.10
2023-05-19T09:43:37.680Z,3.75
2023-05-19T09:46:06.772Z,3.97
2023-05-19T09:48:36.576Z,4.80
2023-05-19T09:51:10.498Z,4.15
2023-05-19T09:53:39.124Z,5.88
2023-05-19T09:56:09.878Z,5.47
2023-05-19T09:58:43.239Z,3.55
2023-05-19T10:01:11.553Z,4.38
2023-05-19T10:03:41.329Z,3.92
2023-05-19T10:06:12.102Z,4.43
2023-05-19T10:08:42.475Z,4.10
2023-05-19T10:11:12.263Z,4.68
2023-05-19T10:13:41.126Z,4.13
2023-05-19T10:16:10.732Z,5.00
2023-05-19T10:18:40.104Z,4.07
2023-05-19T10:21:11.828Z,4.35
2023-05-19T10:23:40.142Z,3.90
2023-05-19T10:26:09.312Z,4.05
2023-05-19T10:28:40.803Z,3.80
2023-05-19T10:31:12.616Z,3.50
2023-05-19T10:33:58.269Z,3.40
2023-05-19T10:36:44.390Z,3.83
2023-05-19T10:39:18.384Z,3.10
2023-05-19T10:41:58.897Z,3.63
2023-05-19T10:44:40.999Z,3.30
2023-05-19T10:47:12.452Z,3.67
2023-05-19T10:49:42.205Z,3.25
2023-05-19T10:52:26.948Z,3.60
2023-05-19T10:54:55.696Z,3.38
2023-05-19T10:57:30.759Z,3.80
2023-05-19T11:00:00.768Z,3.33
2023-05-19T11:02:47.691Z,3.10
2023-05-19T11:05:18.587Z,2.83
2023-05-19T11:08:02.468Z,2.60
2023-05-19T11:10:31.117Z,3.17
2023-05-19T11:12:59.664Z,2.55
2023-05-19T11:15:29.209Z,2.78
2023-05-19T11:17:57.933Z,2.50
2023-05-19T11:20:27.234Z,2.60
2023-05-19T11:23:10.565Z,2.42
2023-05-19T11:25:48.115Z,3.00
2023-05-19T11:28:21.193Z,2.90
2023-05-19T11:30:57.873Z,2.80
2023-05-19T11:33:28.006Z,3.30
2023-05-19T11:35:59.241Z,3.08
2023-05-19T11:38:30.411Z,2.75
2023-05-19T11:40:59.213Z,3.55
2023-05-19T11:43:27.904Z,2.90
2023-05-19T11:45:56.386Z,2.30
2023-05-19T11:48:25.865Z,2.20
2023-05-19T11:50:54.546Z,2.80
2023-05-19T11:53:22.856Z,3.08
2023-05-19T11:55:52.712Z,2.45
2023-05-19T11:58:27.289Z,2.90
2023-05-19T12:00:55.597Z,2.60
2023-05-19T12:03:28.779Z,2.42
2023-05-19T12:05:57.894Z,2.90
2023-05-19T12:08:27.310Z,2.75
2023-05-19T12:10:57.422Z,2.70
2023-05-19T12:13:26.441Z,2.70
2023-05-19T12:16:02.392Z,2.80
2023-05-19T12:18:32.723Z,2.60
2023-05-19T12:21:01.392Z,2.63
2023-05-19T12:23:30.813Z,2.80
2023-05-19T12:26:01.048Z,3.05
2023-05-19T12:28:31.462Z,2.72
2023-05-19T12:30:59.960Z,2.65
2023-05-19T12:33:28.450Z,2.50
2023-05-19T12:35:56.795Z,2.45
2023-05-19T12:38:25.249Z,2.50
2023-05-19T12:40:53.636Z,2.80
2023-05-19T12:43:24.210Z,2.45
2023-05-19T12:45:52.842Z,2.72
2023-05-19T12:48:24.111Z,2.47
2023-05-19T12:50:55.734Z,2.50
2023-05-19T12:53:27.314Z,2.45
2023-05-19T12:55:55.683Z,2.72
2023-05-19T12:58:25.576Z,2.83
2023-05-19T13:01:00.025Z,2.65
2023-05-19T13:03:28.574Z,2.38
2023-05-19T13:05:56.858Z,2.25
2023-05-19T13:08:25.785Z,2.15
2023-05-19T13:10:54.693Z,2.47
2023-05-19T13:13:22.886Z,2.88
2023-05-19T13:15:52.563Z,2.47
2023-05-19T13:18:20.844Z,2.40
2023-05-19T13:20:50.345Z,2.45
2023-05-19T13:23:19.485Z,2.70
2023-05-19T13:25:47.786Z,2.50
2023-05-19T13:28:16.182Z,2.08
2023-05-19T13:30:45.925Z,2.17
2023-05-19T13:33:15.766Z,2.95
2023-05-19T13:35:44.208Z,2.35
2023-05-19T13:38:12.573Z,2.28
2023-05-19T13:40:41.652Z,2.72
2023-05-19T13:43:10.220Z,2.55
2023-05-19T13:45:38.806Z,2.60
2023-05-19T13:48:08.656Z,2.50
2023-05-19T13:50:38.343Z,2.33
2023-05-19T13:53:06.705Z,2.30
2023-05-19T13:55:35.100Z,2.53
2023-05-19T13:58:03.678Z,2.47
2023-05-19T14:00:33.185Z,2.42
2023-05-19T14:03:06.071Z,2.20
2023-05-19T14:05:34.735Z,2.20
2023-05-19T14:08:05.757Z,2.10
2023-05-19T14:10:37.208Z,2.25
2023-05-19T14:13:29.546Z,2.00
2023-05-19T14:15:53.993Z,2.00
2023-05-19T14:18:22.425Z,2.35
2023-05-19T14:20:50.643Z,2.40
2023-05-19T14:23:21.741Z,2.30
2023-05-19T14:25:50.226Z,2.13
2023-05-19T14:28:18.837Z,2.33
2023-05-19T14:30:47.835Z,2.50
2023-05-19T14:33:20.531Z,2.33
2023-05-19T14:35:49.967Z,2.08
2023-05-19T14:38:18.511Z,2.40
2023-05-19T14:40:48.566Z,2.30
2023-05-19T14:43:18.862Z,2.28
2023-05-19T14:45:47.127Z,2.65
2023-05-19T14:48:15.903Z,2.40
2023-05-19T14:50:44.338Z,2.10
2023-05-19T14:53:12.582Z,3.05
2023-05-19T14:55:40.924Z,2.40
2023-05-19T14:58:27.011Z,2.65
2023-05-19T15:00:59.103Z,2.63
2023-05-19T15:03:27.446Z,2.20
2023-05-19T15:05:55.766Z,2.40
2023-05-19T15:08:24.044Z,2.45
2023-05-19T15:10:52.528Z,2.28
2023-05-19T15:13:22.350Z,2.08
2023-05-19T15:16:01.679Z,2.50
2023-05-19T15:18:37.005Z,2.50
2023-05-19T15:21:05.785Z,2.42
2023-05-19T15:23:33.942Z,2.40
2023-05-19T15:26:02.304Z,2.30
2023-05-19T15:28:32.318Z,2.05
2023-05-19T15:31:00.853Z,2.28
2023-05-19T15:33:29.360Z,2.53
2023-05-19T15:35:58.401Z,2.50
2023-05-19T15:38:28.503Z,2.38
2023-05-19T15:40:58.240Z,2.88
2023-05-19T15:43:26.480Z,2.33
2023-05-19T15:45:56.333Z,2.28
2023-05-19T15:48:24.836Z,2.22
2023-05-19T15:50:53.161Z,2.33
2023-05-19T15:53:21.447Z,2.70
2023-05-19T15:55:49.776Z,2.08
2023-05-19T15:58:18.271Z,2.10
2023-05-19T16:00:46.530Z,2.10
2023-05-19T16:03:16.321Z,2.30
2023-05-19T16:05:44.642Z,2.28
2023-05-19T16:08:12.872Z,2.03
2023-05-19T16:10:41.294Z,2.08
2023-05-19T16:13:09.819Z,2.17
2023-05-19T16:15:38.243Z,2.28
2023-05-19T16:18:06.941Z,2.20
2023-05-19T16:20:36.872Z,2.20
2023-05-19T16:23:05.267Z,2.33
2023-05-19T16:25:35.670Z,2.65
2023-05-19T16:28:04.144Z,2.03
2023-05-19T16:30:32.820Z,2.22
2023-05-19T16:33:01.476Z,2.40
2023-05-19T16:35:31.131Z,2.35
2023-05-19T16:38:01.065Z,2.60
2023-05-19T16:40:30.989Z,2.50
2023-05-19T16:42:59.638Z,2.70
2023-05-19T16:45:28.225Z,2.65
2023-05-19T16:47:56.781Z,2.50
2023-05-19T16:50:25.280Z,2.70
2023-05-19T16:52:53.663Z,2.72
2023-05-19T16:55:25.551Z,2.70
2023-05-19T16:57:53.881Z,2.55
2023-05-19T17:00:22.385Z,2.50
2023-05-19T17:02:50.855Z,2.60
2023-05-19T17:05:19.562Z,2.38
2023-05-19T17:07:47.862Z,2.70
2023-05-19T17:10:17.565Z,2.47
2023-05-19T17:12:47.838Z,2.85
2023-05-19T17:15:16.924Z,2.90
2023-05-19T17:17:45.202Z,2.50
2023-05-19T17:20:14.606Z,2.60
2023-05-19T17:22:43.482Z,3.20
2023-05-19T17:25:11.946Z,2.10
2023-05-19T17:27:40.278Z,2.90
2023-05-19T17:30:11.112Z,2.58
2023-05-19T17:32:39.805Z,2.47
2023-05-19T17:35:09.271Z,2.83
2023-05-19T17:37:37.733Z,2.72
2023-05-19T17:40:07.141Z,2.67
2023-05-19T17:42:35.454Z,2.72
2023-05-19T17:45:07.832Z,2.58
2023-05-19T17:47:37.790Z,2.47
2023-05-19T17:50:07.009Z,2.65
2023-05-19T17:52:36.345Z,3.20
2023-05-19T17:55:05.870Z,3.42
2023-05-19T17:57:37.219Z,3.30
2023-05-19T18:00:07.587Z,3.10
2023-05-19T18:02:39.128Z,2.85
2023-05-19T18:05:09.274Z,3.42
2023-05-19T18:07:40.251Z,3.50
2023-05-19T18:10:10.780Z,3.47
2023-05-19T18:12:39.110Z,3.50
2023-05-19T18:15:08.331Z,3.53
2023-05-19T18:17:38.087Z,3.47
2023-05-19T18:20:07.525Z,3.60
2023-05-19T18:22:35.990Z,4.35
2023-05-19T18:25:04.439Z,4.28
2023-05-19T18:27:33.587Z,4.25
2023-05-19T18:30:01.988Z,4.00
2023-05-19T18:32:30.418Z,4.38
2023-05-19T18:35:00.127Z,4.78
2023-05-19T18:37:28.909Z,4.90
2023-05-19T18:39:57.608Z,4.93
2023-05-19T18:42:25.996Z,4.57
2023-05-19T18:44:54.454Z,4.32
2023-05-19T18:47:25.417Z,4.40
2023-05-19T18:49:53.841Z,4.53
2023-05-19T18:52:23.910Z,4.70
2023-05-19T18:54:52.370Z,4.55
2023-05-19T18:57:21.012Z,5.38
2023-05-19T18:59:50.152Z,5.40
2023-05-19T19:02:18.512Z,5.55
2023-05-19T19:04:47.083Z,5.10
2023-05-19T19:07:15.547Z,5.28
2023-05-19T19:09:49.286Z,4.70
2023-05-19T19:12:19.617Z,5.57
2023-05-19T19:14:48.621Z,5.55
2023-05-19T19:17:17.251Z,5.45
2023-05-19T19:19:45.752Z,4.88
2023-05-19T19:22:14.865Z,5.68
2023-05-19T19:24:46.851Z,5.50
2023-05-19T19:27:17.857Z,5.15
2023-05-19T19:29:46.339Z,4.80
2023-05-19T19:32:14.983Z,5.32
2023-05-19T19:34:43.580Z,5.40
2023-05-19T19:37:11.867Z,5.13
2023-05-19T19:39:40.625Z,5.47
2023-05-19T19:42:10.489Z,5.80
2023-05-19T19:44:41.184Z,5.80
2023-05-19T19:47:11.665Z,5.82
2023-05-19T19:49:40.046Z,6.13
2023-05-19T19:52:08.340Z,5.97
2023-05-19T19:54:36.786Z,5.90
2023-05-19T19:57:05.726Z,6.07
2023-05-19T19:59:37.867Z,5.50
2023-05-19T20:02:06.621Z,6.05
2023-05-19T20:04:35.339Z,5.78
2023-05-19T20:07:03.933Z,5.57
2023-05-19T20:09:32.610Z,5.63
2023-05-19T20:12:01.498Z,5.50
2023-05-19T20:14:30.288Z,4.97
2023-05-19T20:17:00.381Z,6.10
2023-05-19T20:19:29.789Z,5.70
2023-05-19T20:21:58.225Z,6.40
2023-05-19T20:24:26.690Z,6.18
2023-05-19T20:26:55.763Z,6.10
2023-05-19T20:29:24.353Z,6.15
2023-05-19T20:31:53.645Z,5.70
2023-05-19T20:34:24.722Z,6.30
2023-05-19T20:36:53.248Z,6.82
2023-05-19T20:39:21.489Z,6.20
2023-05-19T20:41:50.141Z,6.28
2023-05-19T20:44:18.694Z,7.78
2023-05-19T20:46:47.277Z,7.13
2023-05-19T20:49:15.606Z,6.07
2023-05-19T20:51:45.496Z,6.97
2023-05-19T20:54:13.841Z,6.80
2023-05-19T20:56:44.217Z,6.82
2023-05-19T20:59:12.607Z,6.72
2023-05-19T21:01:41.226Z,7.03
2023-05-19T21:04:09.707Z,6.53
2023-05-19T21:06:38.436Z,6.93
2023-05-19T21:09:08.082Z,6.38
2023-05-19T21:11:36.351Z,6.28
2023-05-19T21:14:05.166Z,5.53
2023-05-19T21:16:34.147Z,5.82
2023-05-19T21:19:02.942Z,5.40
2023-05-19T21:21:31.760Z,5.75
2023-05-19T21:24:00.246Z,6.43
2023-05-19T21:26:29.872Z,5.90
2023-05-19T21:28:58.215Z,6.72
2023-05-19T21:31:26.497Z,5.90
2023-05-19T21:33:54.818Z,6.07
2023-05-19T21:36:23.243Z,6.00
2023-05-19T21:38:51.706Z,5.00
2023-05-19T21:41:19.991Z,5.25
2023-05-19T21:43:49.662Z,5.25
2023-05-19T21:46:18.069Z,5.30
2023-05-19T21:48:46.379Z,5.60
2023-05-19T21:51:14.662Z,5.18
2023-05-19T21:53:42.907Z,5.30
2023-05-19T21:56:11.300Z,5.50
2023-05-19T21:58:39.718Z,5.20
2023-05-19T22:01:09.811Z,5.40
2023-05-19T22:03:38.110Z,5.65
2023-05-19T22:06:07.652Z,5.40
2023-05-19T22:08:35.894Z,5.35
2023-05-19T22:11:04.178Z,5.40
2023-05-19T22:13:32.510Z,5.53
2023-05-19T22:16:00.893Z,5.50
2023-05-19T22:18:30.550Z,6.03
2023-05-19T22:20:59.006Z,5.72
2023-05-19T22:23:27.296Z,6.15
2023-05-19T22:25:55.581Z,6.28
2023-05-19T22:28:23.800Z,5.90
2023-05-19T22:30:52.085Z,6.13
2023-05-19T22:33:20.299Z,6.38
2023-05-19T22:35:50.074Z,5.50
2023-05-19T22:38:18.227Z,5.78
2023-05-19T22:40:46.615Z,5.60
2023-05-19T22:43:15.063Z,5.60
2023-05-19T22:45:43.402Z,5.93
2023-05-19T22:48:11.887Z,5.80
2023-05-19T22:50:40.140Z,5.00
2023-05-19T22:53:09.803Z,5.03
2023-05-19T22:55:38.038Z,4.95
2023-05-19T22:58:06.880Z,5.40
2023-05-19T23:00:35.130Z,5.05
2023-05-19T23:03:03.466Z,4.97
2023-05-19T23:05:32.018Z,4.60
2023-05-19T23:08:00.580Z,4.90
2023-05-19T23:10:30.161Z,5.57
2023-05-19T23:12:58.405Z,5.50
2023-05-19T23:15:26.834Z,5.65
2023-05-19T23:17:55.255Z,5.32
2023-05-19T23:20:23.597Z,5.72
2023-05-19T23:22:51.807Z,5.65
2023-05-19T23:25:20.126Z,6.40
2023-05-19T23:27:49.810Z,5.85
2023-05-19T23:30:18.170Z,6.53
2023-05-19T23:32:46.699Z,6.32
2023-05-19T23:35:17.277Z,6.38
2023-05-19T23:37:45.698Z,5.85
2023-05-19T23:40:14.440Z,5.78
2023-05-19T23:42:44.417Z,6.40
2023-05-19T23:45:14.305Z,6.03
2023-05-19T23:47:42.561Z,6.32
2023-05-19T23:50:11.856Z,5.85
2023-05-19T23:52:42.067Z,6.57
2023-05-19T23:55:12.717Z,5.57
2023-05-19T23:57:41.035Z,5.68
